sensor_id;sensor_type;location;lat;lon;timestamp;P1;durP1;ratioP1;P2;durP2;ratioP2
7047;SDS011;3565;53.254;10.352;2023-02-02T15:38:29;4.60;;;1.53;;
7047;SDS011;3565;53.254;10.352;2023-02-02T15:41:03;3.87;;;1.63;;
7047;SDS011;3565;53.254;10.352;2023-02-02T15:43:31;2.70;;;1.30;;
7047;SDS011;3565;53.254;10.352;2023-02-02T15:46:03;4.17;;;1.40;;
7047;SDS011;3565;53.254;10.352;2023-02-02T15:53:25;2.23;;;1.40;;
7047;SDS011;3565;53.254;10.352;2023-02-02T15:55:57;2.17;;;1.40;;
7047;SDS011;3565;53.254;10.352;2023-02-02T15:58:29;2.93;;;1.30;;
7047;SDS011;3565;53.254;10.352;2023-02-02T16:01:03;2.60;;;1.47;;
7047;SDS011;3565;53.254;10.352;2023-02-02T16:03:35;3.00;;;1.43;;
7047;SDS011;3565;53.254;10.352;2023-02-02T16:06:07;2.87;;;1.43;;
7047;SDS011;3565;53.254;10.352;2023-02-02T16:08:37;2.07;;;1.50;;
7047;SDS011;3565;53.254;10.352;2023-02-02T16:11:09;3.37;;;1.40;;
7047;SDS011;3565;53.254;10.352;2023-02-02T16:13:40;2.23;;;1.33;;
7047;SDS011;3565;53.254;10.352;2023-02-02T16:16:26;2.90;;;1.27;;
7047;SDS011;3565;53.254;10.352;2023-02-02T16:19:02;2.77;;;1.47;;
7047;SDS011;3565;53.254;10.352;2023-02-02T16:21:34;3.20;;;1.67;;
7047;SDS011;3565;53.254;10.352;2023-02-02T16:24:06;2.27;;;1.60;;
7047;SDS011;3565;53.254;10.352;2023-02-02T16:26:39;2.83;;;1.40;;
7047;SDS011;3565;53.254;10.352;2023-02-02T16:29:12;2.27;;;1.40;;
7047;SDS011;3565;53.254;10.352;2023-02-02T16:31:45;2.00;;;1.30;;
7047;SDS011;3565;53.254;10.352;2023-02-02T16:34:16;3.27;;;1.40;;
7047;SDS011;3565;53.254;10.352;2023-02-02T16:37:06;1.93;;;1.30;;
7047;SDS011;3565;53.254;10.352;2023-02-02T16:39:40;2.33;;;1.40;;
7047;SDS011;3565;53.254;10.352;2023-02-02T16:42:19;2.70;;;1.40;;
7047;SDS011;3565;53.254;10.352;2023-02-02T16:44:50;2.20;;;1.47;;
7047;SDS011;3565;53.254;10.352;2023-02-02T16:47:33;2.40;;;1.60;;
7047;SDS011;3565;53.254;10.352;2023-02-02T16:50:22;2.43;;;1.60;;
7047;SDS011;3565;53.254;10.352;2023-02-02T16:52:57;2.60;;;1.77;;
7047;SDS011;3565;53.254;10.352;2023-02-02T16:55:29;4.27;;;2.07;;
7047;SDS011;3565;53.254;10.352;2023-02-02T16:57:59;3.10;;;1.77;;
7047;SDS011;3565;53.254;10.352;2023-02-02T17:00:57;2.27;;;1.80;;
7047;SDS011;3565;53.254;10.352;2023-02-02T17:03:30;2.43;;;1.83;;
7047;SDS011;3565;53.254;10.352;2023-02-02T17:06:02;3.67;;;1.90;;
7047;SDS011;3565;53.254;10.352;2023-02-02T17:08:35;2.43;;;1.90;;
7047;SDS011;3565;53.254;10.352;2023-02-02T17:13:44;2.57;;;2.00;;
7047;SDS011;3565;53.254;10.352;2023-02-02T17:16:14;3.83;;;2.33;;
7047;SDS011;3565;53.254;10.352;2023-02-02T17:18:46;4.73;;;2.07;;
7047;SDS011;3565;53.254;10.352;2023-02-02T17:21:19;4.20;;;2.20;;
7047;SDS011;3565;53.254;10.352;2023-02-02T17:23:51;3.30;;;2.07;;
7047;SDS011;3565;53.254;10.352;2023-02-02T17:26:23;2.90;;;2.30;;
7047;SDS011;3565;53.254;10.352;2023-02-02T17:28:54;5.13;;;2.37;;
7047;SDS011;3565;53.254;10.352;2023-02-02T17:31:25;3.63;;;2.37;;
7047;SDS011;3565;53.254;10.352;2023-02-02T17:33:55;2.90;;;2.20;;
7047;SDS011;3565;53.254;10.352;2023-02-02T17:36:35;4.73;;;2.43;;
7047;SDS011;3565;53.254;10.352;2023-02-02T17:39:05;3.90;;;2.50;;
7047;SDS011;3565;53.254;10.352;2023-02-02T17:41:36;4.67;;;2.63;;
7047;SDS011;3565;53.254;10.352;2023-02-02T17:44:05;4.27;;;2.53;;
7047;SDS011;3565;53.254;10.352;2023-02-02T17:46:36;3.90;;;2.67;;
7047;SDS011;3565;53.254;10.352;2023-02-02T17:49:07;4.07;;;3.03;;
7047;SDS011;3565;53.254;10.352;2023-02-02T17:51:37;5.27;;;3.50;;
7047;SDS011;3565;53.254;10.352;2023-02-02T17:54:10;5.30;;;3.00;;
7047;SDS011;3565;53.254;10.352;2023-02-02T17:56:42;5.17;;;3.30;;
7047;SDS011;3565;53.254;10.352;2023-02-02T17:59:22;3.67;;;2.90;;
7047;SDS011;3565;53.254;10.352;2023-02-02T18:01:52;3.80;;;3.20;;
7047;SDS011;3565;53.254;10.352;2023-02-02T18:04:22;3.87;;;3.27;;
7047;SDS011;3565;53.254;10.352;2023-02-02T18:06:54;4.60;;;3.40;;
7047;SDS011;3565;53.254;10.352;2023-02-02T18:09:24;4.90;;;3.60;;
7047;SDS011;3565;53.254;10.352;2023-02-02T18:11:54;4.60;;;3.77;;
7047;SDS011;3565;53.254;10.352;2023-02-02T18:14:24;5.47;;;3.97;;
7047;SDS011;3565;53.254;10.352;2023-02-02T18:16:54;5.17;;;3.80;;
7047;SDS011;3565;53.254;10.352;2023-02-02T18:19:23;5.10;;;4.03;;
7047;SDS011;3565;53.254;10.352;2023-02-02T18:21:54;6.17;;;4.30;;
7047;SDS011;3565;53.254;10.352;2023-02-02T18:24:24;4.47;;;3.80;;
7047;SDS011;3565;53.254;10.352;2023-02-02T18:26:53;5.03;;;4.20;;
7047;SDS011;3565;53.254;10.352;2023-02-02T18:29:23;6.20;;;4.17;;
7047;SDS011;3565;53.254;10.352;2023-02-02T18:31:52;5.70;;;4.27;;
7047;SDS011;3565;53.254;10.352;2023-02-02T18:34:23;6.53;;;4.20;;
7047;SDS011;3565;53.254;10.352;2023-02-02T18:36:58;5.17;;;4.27;;
7047;SDS011;3565;53.254;10.352;2023-02-02T18:39:28;4.67;;;4.17;;
7047;SDS011;3565;53.254;10.352;2023-02-02T18:42:07;5.73;;;3.97;;
7047;SDS011;3565;53.254;10.352;2023-02-02T18:44:37;6.50;;;3.80;;
7047;SDS011;3565;53.254;10.352;2023-02-02T18:47:06;4.57;;;4.07;;
7047;SDS011;3565;53.254;10.352;2023-02-02T18:49:35;4.83;;;4.17;;
7047;SDS011;3565;53.254;10.352;2023-02-02T18:52:06;4.40;;;4.00;;
7047;SDS011;3565;53.254;10.352;2023-02-02T18:54:35;4.30;;;3.83;;
7047;SDS011;3565;53.254;10.352;2023-02-02T18:59:43;5.50;;;4.80;;
7047;SDS011;3565;53.254;10.352;2023-02-02T19:02:14;5.70;;;4.33;;
7047;SDS011;3565;53.254;10.352;2023-02-02T19:04:45;5.10;;;4.60;;
7047;SDS011;3565;53.254;10.352;2023-02-02T19:07:33;5.60;;;4.40;;
7047;SDS011;3565;53.254;10.352;2023-02-02T19:10:21;5.57;;;4.83;;
7047;SDS011;3565;53.254;10.352;2023-02-02T19:12:52;6.40;;;4.50;;
7047;SDS011;3565;53.254;10.352;2023-02-02T19:15:24;6.57;;;4.40;;
7047;SDS011;3565;53.254;10.352;2023-02-02T19:17:54;5.80;;;4.43;;
7047;SDS011;3565;53.254;10.352;2023-02-02T19:20:24;5.67;;;4.70;;
7047;SDS011;3565;53.254;10.352;2023-02-02T19:22:59;6.07;;;4.70;;
7047;SDS011;3565;53.254;10.352;2023-02-02T19:25:33;5.17;;;4.27;;
7047;SDS011;3565;53.254;10.352;2023-02-02T19:28:03;5.60;;;4.93;;
7047;SDS011;3565;53.254;10.352;2023-02-02T19:30:40;5.80;;;5.20;;
7047;SDS011;3565;53.254;10.352;2023-02-02T19:33:10;6.33;;;5.07;;
7047;SDS011;3565;53.254;10.352;2023-02-02T19:35:41;5.97;;;4.90;;
7047;SDS011;3565;53.254;10.352;2023-02-02T19:38:14;7.33;;;5.20;;
7047;SDS011;3565;53.254;10.352;2023-02-02T19:40:46;5.20;;;4.70;;
7047;SDS011;3565;53.254;10.352;2023-02-02T19:43:22;6.07;;;4.50;;
7047;SDS011;3565;53.254;10.352;2023-02-02T19:45:52;5.80;;;4.70;;
7047;SDS011;3565;53.254;10.352;2023-02-02T19:48:24;5.67;;;4.53;;
7047;SDS011;3565;53.254;10.352;2023-02-02T19:51:20;6.03;;;4.67;;
7047;SDS011;3565;53.254;10.352;2023-02-02T19:53:55;5.20;;;4.37;;
7047;SDS011;3565;53.254;10.352;2023-02-02T19:56:27;5.20;;;4.60;;
7047;SDS011;3565;53.254;10.352;2023-02-02T19:59:01;5.00;;;4.10;;
7047;SDS011;3565;53.254;10.352;2023-02-02T20:01:32;4.90;;;4.40;;
7047;SDS011;3565;53.254;10.352;2023-02-02T20:04:04;5.47;;;4.10;;
7047;SDS011;3565;53.254;10.352;2023-02-02T20:06:39;5.13;;;4.20;;
7047;SDS011;3565;53.254;10.352;2023-02-02T20:09:18;5.30;;;4.03;;
7047;SDS011;3565;53.254;10.352;2023-02-02T20:11:49;5.03;;;4.03;;
7047;SDS011;3565;53.254;10.352;2023-02-02T20:14:26;6.00;;;4.13;;
7047;SDS011;3565;53.254;10.352;2023-02-02T20:17:00;6.13;;;4.57;;
7047;SDS011;3565;53.254;10.352;2023-02-02T20:19:32;4.20;;;3.57;;
7047;SDS011;3565;53.254;10.352;2023-02-02T20:22:08;5.77;;;4.17;;
7047;SDS011;3565;53.254;10.352;2023-02-02T20:24:44;6.20;;;3.63;;
7047;SDS011;3565;53.254;10.352;2023-02-02T20:27:18;5.23;;;4.10;;
7047;SDS011;3565;53.254;10.352;2023-02-02T20:29:49;5.80;;;3.90;;
7047;SDS011;3565;53.254;10.352;2023-02-02T20:32:22;4.77;;;4.03;;
7047;SDS011;3565;53.254;10.352;2023-02-02T20:34:55;4.33;;;3.57;;
7047;SDS011;3565;53.254;10.352;2023-02-02T20:37:28;5.20;;;3.90;;
7047;SDS011;3565;53.254;10.352;2023-02-02T20:39:59;4.70;;;3.50;;
7047;SDS011;3565;53.254;10.352;2023-02-02T20:42:30;3.73;;;3.33;;
7047;SDS011;3565;53.254;10.352;2023-02-02T20:45:01;4.47;;;3.57;;
7047;SDS011;3565;53.254;10.352;2023-02-02T20:47:33;4.40;;;3.50;;
7047;SDS011;3565;53.254;10.352;2023-02-02T20:50:04;4.47;;;3.50;;
7047;SDS011;3565;53.254;10.352;2023-02-02T20:52:35;4.37;;;3.53;;
7047;SDS011;3565;53.254;10.352;2023-02-02T20:55:06;3.83;;;3.40;;
7047;SDS011;3565;53.254;10.352;2023-02-02T20:57:36;4.97;;;3.50;;
7047;SDS011;3565;53.254;10.352;2023-02-02T21:00:11;5.60;;;3.57;;
7047;SDS011;3565;53.254;10.352;2023-02-02T21:02:46;5.00;;;3.20;;
7047;SDS011;3565;53.254;10.352;2023-02-02T21:05:17;6.57;;;3.40;;
7047;SDS011;3565;53.254;10.352;2023-02-02T21:07:46;4.50;;;3.20;;
7047;SDS011;3565;53.254;10.352;2023-02-02T21:10:18;4.20;;;3.13;;
7047;SDS011;3565;53.254;10.352;2023-02-02T21:12:48;4.57;;;3.30;;
7047;SDS011;3565;53.254;10.352;2023-02-02T21:15:19;5.73;;;3.10;;
7047;SDS011;3565;53.254;10.352;2023-02-02T21:17:51;4.43;;;3.13;;
7047;SDS011;3565;53.254;10.352;2023-02-02T21:20:20;3.73;;;3.17;;
7047;SDS011;3565;53.254;10.352;2023-02-02T21:22:49;3.83;;;2.80;;
7047;SDS011;3565;53.254;10.352;2023-02-02T21:25:21;4.17;;;3.10;;
7047;SDS011;3565;53.254;10.352;2023-02-02T21:27:51;3.33;;;2.97;;
7047;SDS011;3565;53.254;10.352;2023-02-02T21:30:22;3.20;;;2.87;;
7047;SDS011;3565;53.254;10.352;2023-02-02T21:32:51;4.33;;;2.67;;
7047;SDS011;3565;53.254;10.352;2023-02-02T21:35:25;4.73;;;2.70;;
7047;SDS011;3565;53.254;10.352;2023-02-02T21:37:55;4.33;;;2.67;;
7047;SDS011;3565;53.254;10.352;2023-02-02T21:40:27;3.03;;;2.60;;
7047;SDS011;3565;53.254;10.352;2023-02-02T21:43:11;3.00;;;2.53;;
7047;SDS011;3565;53.254;10.352;2023-02-02T21:45:42;2.57;;;2.37;;
7047;SDS011;3565;53.254;10.352;2023-02-02T21:48:22;2.60;;;2.40;;
7047;SDS011;3565;53.254;10.352;2023-02-02T21:50:56;3.03;;;2.57;;
7047;SDS011;3565;53.254;10.352;2023-02-02T21:53:27;4.23;;;2.60;;
7047;SDS011;3565;53.254;10.352;2023-02-02T21:55:59;3.13;;;2.40;;
7047;SDS011;3565;53.254;10.352;2023-02-02T21:58:34;2.80;;;2.30;;
7047;SDS011;3565;53.254;10.352;2023-02-02T22:03:45;4.13;;;2.50;;
7047;SDS011;3565;53.254;10.352;2023-02-02T22:06:23;3.47;;;2.57;;
7047;SDS011;3565;53.254;10.352;2023-02-02T22:08:59;3.70;;;2.47;;
7047;SDS011;3565;53.254;10.352;2023-02-02T22:11:34;3.90;;;2.47;;
7047;SDS011;3565;53.254;10.352;2023-02-02T22:14:13;2.80;;;2.30;;
7047;SDS011;3565;53.254;10.352;2023-02-02T22:16:52;2.70;;;2.20;;
7047;SDS011;3565;53.254;10.352;2023-02-02T22:19:24;3.40;;;2.57;;
7047;SDS011;3565;53.254;10.352;2023-02-02T22:22:07;3.37;;;2.50;;
7047;SDS011;3565;53.254;10.352;2023-02-02T22:24:43;2.23;;;2.03;;
7047;SDS011;3565;53.254;10.352;2023-02-02T22:27:16;2.60;;;2.20;;
7047;SDS011;3565;53.254;10.352;2023-02-02T22:29:48;3.13;;;2.17;;
7047;SDS011;3565;53.254;10.352;2023-02-02T22:32:19;2.87;;;2.40;;
7047;SDS011;3565;53.254;10.352;2023-02-02T22:35:01;6.10;;;2.57;;
7047;SDS011;3565;53.254;10.352;2023-02-02T22:37:31;3.17;;;2.47;;
7047;SDS011;3565;53.254;10.352;2023-02-02T22:40:01;4.07;;;2.30;;
7047;SDS011;3565;53.254;10.352;2023-02-02T22:42:32;3.83;;;2.13;;
7047;SDS011;3565;53.254;10.352;2023-02-02T22:45:01;3.07;;;2.47;;
7047;SDS011;3565;53.254;10.352;2023-02-02T22:47:32;4.30;;;2.30;;
7047;SDS011;3565;53.254;10.352;2023-02-02T22:50:04;2.53;;;2.10;;
7047;SDS011;3565;53.254;10.352;2023-02-02T22:52:37;3.00;;;2.20;;
7047;SDS011;3565;53.254;10.352;2023-02-02T22:55:07;5.40;;;2.20;;
